Time;durP1;ratioP1;P1;durP2;ratioP2;P2;SDS_P1;SDS_P2;PMS_P1;PMS_P2;Temp;Humidity;BMP_temperature;BMP_pressure;BME280_temperature;BME280_humidity;BME280_pressure;Samples;Min_cycle;Max_cycle;Signal;HPM_P1;HPM_P2
2021/05/23 00:02:33;;;;;;;20.02;6.40;;;16.50;99.90;;;;;;5030772;28;20040;-65
2021/05/23 00:05:39;;;;;;;17.95;6.65;;;16.40;99.90;;;;;;5018587;28;20068;-65
2021/05/23 00:08:43;;;;;;;19.05;5.97;;;16.30;99.90;;;;;;5029909;28;20519;-64
2021/05/23 00:11:49;;;;;;;18.63;5.78;;;16.20;99.90;;;;;;5029279;28;20055;-64
2021/05/23 00:14:53;;;;;;;22.20;6.90;;;16.30;99.90;;;;;;5031064;28;20049;-66
2021/05/23 00:17:57;;;;;;;21.70;6.32;;;16.40;99.90;;;;;;5030622;28;20048;-65
2021/05/23 00:21:04;;;;;;;20.77;5.88;;;16.50;99.90;;;;;;5030657;28;20495;-65
2021/05/23 00:24:09;;;;;;;22.67;6.95;;;16.50;99.90;;;;;;5029436;28;20056;-65
2021/05/23 00:27:14;;;;;;;19.52;6.88;;;16.50;99.90;;;;;;5030653;28;20048;-65
2021/05/23 00:30:19;;;;;;;23.05;6.60;;;16.40;99.90;;;;;;5029936;28;20048;-65
2021/05/23 00:33:24;;;;;;;16.35;6.20;;;16.50;99.90;;;;;;5029952;28;20048;-65
2021/05/23 00:36:28;;;;;;;21.92;5.82;;;16.60;99.90;;;;;;5030556;28;20056;-65
2021/05/23 00:39:32;;;;;;;20.05;5.80;;;16.60;99.90;;;;;;5029451;28;20052;-64
2021/05/23 00:42:38;;;;;;;23.10;6.10;;;16.60;99.90;;;;;;5030476;28;20053;-65
2021/05/23 00:45:45;;;;;;;21.77;6.13;;;16.60;99.90;;;;;;5030381;28;20559;-65
2021/05/23 00:48:49;;;;;;;26.90;6.05;;;16.60;99.90;;;;;;5030191;28;20052;-65
2021/05/23 00:51:53;;;;;;;21.42;5.68;;;16.60;99.90;;;;;;5030013;28;20044;-65
2021/05/23 00:54:57;;;;;;;18.83;5.70;;;16.60;99.90;;;;;;5017066;28;20044;-64
2021/05/23 00:58:02;;;;;;;21.05;5.70;;;16.60;99.90;;;;;;5030074;28;20044;-65
2021/05/23 01:01:11;;;;;;;24.40;6.70;;;16.70;99.90;;;;;;5030130;28;20044;-65
2021/05/23 01:04:16;;;;;;;25.08;6.20;;;16.60;99.90;;;;;;5029861;28;20048;-65
2021/05/23 01:07:19;;;;;;;18.65;7.22;;;16.60;99.90;;;;;;5030364;28;20392;-65
2021/05/23 01:10:26;;;;;;;16.55;6.43;;;16.60;99.90;;;;;;5028993;28;20080;-65
2021/05/23 01:13:55;;;;;;;15.40;5.60;;;16.60;99.90;;;;;;5030271;28;20044;-65
2021/05/23 01:17:00;;;;;;;17.35;6.22;;;16.60;99.90;;;;;;5030241;28;20041;-65
2021/05/23 01:20:11;;;;;;;21.92;6.88;;;16.60;99.90;;;;;;5029250;28;20048;-65
2021/05/23 01:23:24;;;;;;;19.58;7.00;;;16.60;99.90;;;;;;5029948;28;20041;-64
2021/05/23 01:26:48;;;;;;;15.82;6.07;;;16.60;99.90;;;;;;5029967;28;20040;-65
2021/05/23 01:29:53;;;;;;;18.30;5.28;;;16.60;99.90;;;;;;5029894;28;20045;-65
2021/05/23 01:32:59;;;;;;;20.70;6.38;;;16.50;99.90;;;;;;5029477;28;20056;-65
2021/05/23 01:36:05;;;;;;;15.88;5.57;;;16.50;99.90;;;;;;5030082;28;20495;-64
2021/05/23 01:39:12;;;;;;;18.75;6.13;;;16.60;99.90;;;;;;5029412;28;20033;-65
2021/05/23 01:42:17;;;;;;;20.52;6.35;;;16.60;99.90;;;;;;5029806;28;20048;-64
2021/05/23 01:45:22;;;;;;;14.70;5.47;;;16.50;99.90;;;;;;5029852;28;20053;-65
2021/05/23 01:48:26;;;;;;;20.33;6.03;;;16.50;99.90;;;;;;5029984;28;20048;-65
2021/05/23 01:51:31;;;;;;;15.05;6.30;;;16.50;99.90;;;;;;5029359;28;20389;-65
2021/05/23 01:54:36;;;;;;;14.75;6.07;;;16.50;99.90;;;;;;5029154;28;20041;-64
2021/05/23 01:57:42;;;;;;;17.63;6.22;;;16.50;99.90;;;;;;5030190;28;20049;-64
2021/05/23 02:00:51;;;;;;;24.70;7.68;;;16.50;99.90;;;;;;5029610;28;20045;-65
2021/05/23 02:03:59;;;;;;;30.80;6.60;;;16.50;99.90;;;;;;5029470;28;20036;-65
2021/05/23 02:07:04;;;;;;;15.70;5.38;;;16.50;99.90;;;;;;5029654;28;20414;-64
2021/05/23 02:10:11;;;;;;;15.35;5.88;;;16.50;99.90;;;;;;5029999;28;20048;-65
2021/05/23 02:13:16;;;;;;;21.75;6.18;;;16.50;99.90;;;;;;5031710;28;20052;-64
2021/05/23 02:16:21;;;;;;;23.25;6.25;;;16.50;99.90;;;;;;5033123;28;20044;-65
2021/05/23 02:19:26;;;;;;;21.45;6.53;;;16.50;99.90;;;;;;5033015;28;20515;-65
2021/05/23 02:22:30;;;;;;;22.15;6.40;;;16.50;99.90;;;;;;5032957;28;20056;-65
2021/05/23 02:25:34;;;;;;;20.63;6.15;;;16.50;99.90;;;;;;5032177;28;20048;-65
2021/05/23 02:28:39;;;;;;;15.45;5.43;;;16.50;99.90;;;;;;5033587;28;20057;-64
2021/05/23 02:31:43;;;;;;;21.67;6.15;;;16.50;99.90;;;;;;5032413;28;20052;-65
2021/05/23 02:34:49;;;;;;;20.85;6.10;;;16.50;99.90;;;;;;5032758;28;20037;-65
2021/05/23 02:37:55;;;;;;;21.73;5.75;;;16.60;99.90;;;;;;5032809;28;20048;-65
2021/05/23 02:40:59;;;;;;;16.50;5.78;;;16.50;99.90;;;;;;5031866;28;20388;-65
2021/05/23 02:44:03;;;;;;;23.65;5.80;;;16.50;99.90;;;;;;5032416;28;20052;-65
2021/05/23 02:47:08;;;;;;;18.13;5.45;;;16.50;99.90;;;;;;5032568;28;20040;-65
2021/05/23 02:50:18;;;;;;;13.45;5.80;;;16.40;99.90;;;;;;5032084;28;20503;-65
2021/05/23 02:53:22;;;;;;;25.85;6.07;;;16.40;99.90;;;;;;5031132;28;20049;-65
2021/05/23 02:56:26;;;;;;;22.73;5.97;;;16.40;99.90;;;;;;5032513;28;20048;-65
2021/05/23 02:59:31;;;;;;;29.70;7.38;;;16.30;99.90;;;;;;5032676;28;20048;-65
2021/05/23 03:02:36;;;;;;;16.25;5.93;;;16.30;99.90;;;;;;5032449;28;20607;-65
2021/05/23 03:05:41;;;;;;;18.50;6.15;;;16.30;99.90;;;;;;5032214;28;20385;-65
2021/05/23 03:08:46;;;;;;;20.70;6.30;;;16.40;99.90;;;;;;5031041;28;20044;-64
2021/05/23 03:11:50;;;;;;;21.25;5.38;;;16.30;99.90;;;;;;5031033;28;20041;-64
2021/05/23 03:14:54;;;;;;;14.30;6.00;;;16.30;99.90;;;;;;5032383;28;20040;-65
2021/05/23 03:17:59;;;;;;;20.13;6.40;;;16.30;99.90;;;;;;5032494;28;20044;-66
2021/05/23 03:21:04;;;;;;;14.82;5.70;;;16.30;99.90;;;;;;5032034;28;20088;-65
2021/05/23 03:24:08;;;;;;;20.67;5.70;;;16.30;99.90;;;;;;5030709;28;20162;-65
2021/05/23 03:27:13;;;;;;;19.38;6.63;;;16.30;99.90;;;;;;5032046;28;20061;-65
2021/05/23 03:30:29;;;;;;;16.77;5.93;;;16.20;99.90;;;;;;5031556;28;20693;-66
2021/05/23 03:33:34;;;;;;;17.08;6.03;;;16.30;99.90;;;;;;5031666;28;20412;-66
2021/05/23 03:36:39;;;;;;;14.15;5.45;;;16.10;99.90;;;;;;5031529;28;20049;-65
2021/05/23 03:39:44;;;;;;;11.07;5.75;;;16.10;99.90;;;;;;5031048;28;20033;-65
2021/05/23 03:42:49;;;;;;;21.83;6.00;;;16.20;99.90;;;;;;5031709;28;20116;-66
2021/05/23 03:45:54;;;;;;;19.30;6.20;;;16.00;99.90;;;;;;5031902;28;20388;-65
2021/05/23 03:48:58;;;;;;;18.90;6.50;;;16.00;99.90;;;;;;5031178;28;20511;-64
2021/05/23 03:52:02;;;;;;;15.93;5.70;;;16.00;99.90;;;;;;5031249;28;20049;-65
2021/05/23 03:55:08;;;;;;;18.58;5.78;;;16.00;99.90;;;;;;5030772;28;20121;-65
2021/05/23 03:58:13;;;;;;;14.75;5.72;;;16.00;99.90;;;;;;5031509;28;20397;-65
2021/05/23 04:01:17;;;;;;;20.80;5.80;;;16.20;99.90;;;;;;5031318;28;20052;-64
2021/05/23 04:04:21;;;;;;;20.90;6.63;;;16.10;99.90;;;;;;5030165;28;20052;-64
2021/05/23 04:07:27;;;;;;;21.02;5.47;;;16.10;99.90;;;;;;5031166;28;20051;-64
2021/05/23 04:10:40;;;;;;;14.20;6.03;;;16.10;99.90;;;;;;5029922;28;20052;-65
2021/05/23 04:13:45;;;;;;;19.55;5.97;;;16.10;99.90;;;;;;5030550;28;20048;-64
2021/05/23 04:16:49;;;;;;;16.98;6.68;;;16.00;99.90;;;;;;5030930;28;20044;-65
2021/05/23 04:19:53;;;;;;;17.70;5.28;;;15.90;99.90;;;;;;5030263;28;20044;-64
2021/05/23 04:22:57;;;;;;;14.00;5.68;;;15.90;99.90;;;;;;5030701;28;20036;-64
2021/05/23 04:26:03;;;;;;;15.82;6.20;;;16.00;99.90;;;;;;5030656;28;20056;-64
2021/05/23 04:29:07;;;;;;;15.05;5.80;;;15.80;99.90;;;;;;5030511;28;20044;-64
2021/05/23 04:32:12;;;;;;;17.15;5.63;;;15.90;99.90;;;;;;5029615;28;20072;-64
2021/05/23 04:35:17;;;;;;;12.88;5.60;;;15.90;99.90;;;;;;5030042;28;20037;-65
2021/05/23 04:38:21;;;;;;;19.20;6.13;;;15.90;99.90;;;;;;5030699;28;20041;-65
2021/05/23 04:41:25;;;;;;;14.25;5.10;;;16.00;99.90;;;;;;5030196;28;20068;-64
2021/05/23 04:44:29;;;;;;;16.35;5.95;;;16.10;99.90;;;;;;5030172;28;20495;-65
2021/05/23 04:47:35;;;;;;;17.02;6.50;;;16.20;99.90;;;;;;5030783;28;20384;-65
2021/05/23 04:50:38;;;;;;;16.98;6.00;;;16.20;99.90;;;;;;5030171;28;20044;-64
2021/05/23 04:53:44;;;;;;;22.05;5.53;;;16.30;99.90;;;;;;5017114;28;20044;-64
2021/05/23 04:56:48;;;;;;;16.75;5.95;;;16.40;99.90;;;;;;5030201;28;20048;-64
2021/05/23 04:59:53;;;;;;;17.55;6.82;;;16.40;99.90;;;;;;5030307;28;20507;-64
2021/05/23 05:02:57;;;;;;;20.52;5.80;;;16.60;99.90;;;;;;5030175;28;20037;-64
2021/05/23 05:06:01;;;;;;;20.25;6.93;;;16.60;99.90;;;;;;5029756;28;20044;-64
2021/05/23 05:09:05;;;;;;;11.20;5.05;;;16.60;99.90;;;;;;5029792;28;20377;-65
2021/05/23 05:12:10;;;;;;;16.35;5.43;;;16.60;99.90;;;;;;5029526;28;20045;-64
2021/05/23 05:15:14;;;;;;;14.45;5.10;;;16.70;99.90;;;;;;5029950;28;20044;-64
2021/05/23 05:18:18;;;;;;;15.43;5.22;;;16.80;99.90;;;;;;5029866;28;20036;-64
2021/05/23 05:21:23;;;;;;;20.33;5.53;;;17.10;99.90;;;;;;5029811;28;20049;-65
2021/05/23 05:24:28;;;;;;;16.35;5.55;;;17.10;99.90;;;;;;5029161;28;20060;-64
2021/05/23 05:27:32;;;;;;;17.70;5.35;;;17.20;99.90;;;;;;5029401;28;20448;-65
2021/05/23 05:30:36;;;;;;;16.88;5.10;;;17.30;99.90;;;;;;5029495;28;20052;-65
2021/05/23 05:33:40;;;;;;;13.80;5.03;;;17.50;99.90;;;;;;5029745;28;20372;-65
2021/05/23 05:36:44;;;;;;;14.60;4.78;;;17.50;99.90;;;;;;5029454;28;20045;-65
2021/05/23 05:39:48;;;;;;;17.13;4.70;;;17.70;99.90;;;;;;5029215;28;20048;-65
2021/05/23 05:42:52;;;;;;;21.70;6.72;;;17.70;99.90;;;;;;5017125;28;20052;-65
2021/05/23 05:45:56;;;;;;;16.98;5.85;;;17.70;99.90;;;;;;5032525;28;20057;-64
2021/05/23 05:49:01;;;;;;;12.52;5.05;;;17.70;99.90;;;;;;5021213;28;20395;-64
2021/05/23 05:52:06;;;;;;;13.88;5.30;;;17.90;99.90;;;;;;5033124;28;20514;-65
2021/05/23 05:55:11;;;;;;;13.30;4.50;;;17.90;99.90;;;;;;5032907;28;20056;-65
2021/05/23 05:58:15;;;;;;;11.35;4.25;;;18.20;99.90;;;;;;5033134;28;20041;-65
2021/05/23 06:01:19;;;;;;;14.80;4.18;;;18.50;99.90;;;;;;5033244;28;20392;-65
2021/05/23 06:04:23;;;;;;;14.20;4.78;;;18.90;99.90;;;;;;5032878;28;20052;-65
2021/05/23 06:07:28;;;;;;;18.42;5.10;;;18.90;99.90;;;;;;5033552;28;20045;-66
2021/05/23 06:10:32;;;;;;;16.08;5.35;;;18.80;99.90;;;;;;5031843;28;20044;-66
2021/05/23 06:13:37;;;;;;;13.48;4.88;;;18.70;99.90;;;;;;5020890;28;20057;-66
2021/05/23 06:16:42;;;;;;;10.70;4.43;;;18.70;99.90;;;;;;5032891;28;20045;-65
2021/05/23 06:19:47;;;;;;;16.35;4.93;;;18.40;99.90;;;;;;5032392;28;20044;-66
2021/05/23 06:22:51;;;;;;;20.20;5.38;;;18.40;99.90;;;;;;5033181;28;20039;-66
2021/05/23 06:25:55;;;;;;;14.88;4.38;;;18.60;99.90;;;;;;5032438;28;20056;-65
2021/05/23 06:28:59;;;;;;;18.67;5.88;;;18.70;99.90;;;;;;5033072;28;20503;-65
2021/05/23 06:32:06;;;;;;;16.45;4.63;;;18.60;99.90;;;;;;5032512;28;20041;-66
2021/05/23 06:35:11;;;;;;;17.15;5.47;;;18.60;99.90;;;;;;5032320;28;20384;-65
2021/05/23 06:38:16;;;;;;;19.42;4.97;;;18.50;99.90;;;;;;5032577;28;20052;-64
2021/05/23 06:41:20;;;;;;;24.40;4.50;;;18.50;99.90;;;;;;5031899;28;20041;-65
2021/05/23 06:44:26;;;;;;;11.70;4.28;;;18.80;99.90;;;;;;5024146;28;20048;-66
2021/05/23 06:47:30;;;;;;;14.60;4.55;;;19.20;99.90;;;;;;5025985;28;20052;-65
2021/05/23 06:50:35;;;;;;;17.27;4.15;;;19.60;99.90;;;;;;5016463;28;20044;-65
2021/05/23 06:53:40;;;;;;;16.10;4.75;;;19.80;99.90;;;;;;5002057;28;20615;-66
2021/05/23 06:56:45;;;;;;;17.17;4.20;;;20.00;99.90;;;;;;5011574;28;20041;-66
2021/05/23 06:59:50;;;;;;;24.58;4.90;;;19.70;99.90;;;;;;5010587;28;20052;-65
2021/05/23 07:02:56;;;;;;;14.48;4.40;;;19.70;99.90;;;;;;5015631;28;20049;-66
2021/05/23 07:06:01;;;;;;;16.60;4.47;;;19.70;99.90;;;;;;5010892;28;20053;-66
2021/05/23 07:09:05;;;;;;;11.75;4.47;;;19.60;99.90;;;;;;5014803;28;20037;-65
2021/05/23 07:12:10;;;;;;;15.48;4.72;;;19.50;99.90;;;;;;5012656;28;20040;-65
2021/05/23 07:15:15;;;;;;;15.50;4.68;;;20.00;99.90;;;;;;5022925;28;20036;-65
2021/05/23 07:18:19;;;;;;;20.30;4.80;;;20.50;99.90;;;;;;5023553;28;20041;-66
2021/05/23 07:21:24;;;;;;;10.95;4.18;;;21.00;99.90;;;;;;5025992;28;20037;-66
2021/05/23 07:24:28;;;;;;;14.43;3.45;;;21.80;99.90;;;;;;5025986;28;20040;-66
2021/05/23 07:27:33;;;;;;;16.50;4.65;;;22.90;99.90;;;;;;5013863;28;20048;-66
2021/05/23 07:30:40;;;;;;;15.50;4.10;;;22.10;99.90;;;;;;5017392;28;20400;-66
2021/05/23 07:33:44;;;;;;;24.17;5.03;;;21.60;99.90;;;;;;5026829;28;20040;-66
2021/05/23 07:36:48;;;;;;;15.48;4.07;;;20.90;99.90;;;;;;5018783;28;20064;-66
2021/05/23 07:39:52;;;;;;;16.17;4.18;;;20.70;99.90;;;;;;5024326;28;20045;-66
2021/05/23 07:42:57;;;;;;;12.52;3.90;;;20.70;99.90;;;;;;5022179;28;20555;-66
2021/05/23 07:46:02;;;;;;;11.48;4.20;;;20.90;99.90;;;;;;5030352;28;20036;-65
2021/05/23 07:49:07;;;;;;;11.73;3.92;;;20.70;99.90;;;;;;5028197;28;20052;-65
2021/05/23 07:52:12;;;;;;;13.02;4.13;;;20.60;99.90;;;;;;5027806;28;20048;-66
2021/05/23 07:55:17;;;;;;;12.60;3.95;;;21.40;99.90;;;;;;5028248;28;20099;-66
2021/05/23 07:58:23;;;;;;;18.92;4.28;;;21.80;99.90;;;;;;5029485;28;20515;-66
2021/05/23 08:01:28;;;;;;;13.25;3.70;;;22.20;99.90;;;;;;5030389;28;20044;-65
2021/05/23 08:04:33;;;;;;;13.40;3.63;;;22.40;99.90;;;;;;5012029;28;20392;-66
2021/05/23 08:07:37;;;;;;;9.07;3.38;;;23.40;99.90;;;;;;5020833;28;20060;-66
2021/05/23 08:10:42;;;;;;;14.52;3.92;;;24.60;99.90;;;;;;5017895;28;20064;-66
2021/05/23 08:13:46;;;;;;;11.63;3.40;;;24.90;99.90;;;;;;5029677;28;20048;-66
2021/05/23 08:16:50;;;;;;;14.32;3.92;;;24.80;99.90;;;;;;5029892;28;20056;-67
2021/05/23 08:19:54;;;;;;;11.48;3.35;;;25.00;99.90;;;;;;5015495;28;20049;-67
2021/05/23 08:22:59;;;;;;;11.80;3.53;;;23.50;99.90;;;;;;5019963;28;20533;-66
2021/05/23 08:26:04;;;;;;;13.75;3.85;;;24.10;99.90;;;;;;5000085;28;20045;-66
2021/05/23 08:29:09;;;;;;;12.35;3.97;;;23.50;99.90;;;;;;5016997;28;20040;-65
2021/05/23 08:32:14;;;;;;;16.30;3.65;;;23.60;99.90;;;;;;5027979;28;20506;-66
2021/05/23 08:35:19;;;;;;;12.25;2.80;;;25.20;99.90;;;;;;5017344;28;20040;-66
2021/05/23 08:38:23;;;;;;;9.98;3.72;;;27.20;99.90;;;;;;5015914;28;20041;-67
2021/05/23 08:41:28;;;;;;;10.52;3.55;;;28.60;99.90;;;;;;5009983;28;20504;-65
2021/05/23 08:44:33;;;;;;;11.27;2.95;;;29.20;99.50;;;;;;5016153;28;20048;-65
2021/05/23 08:47:45;;;;;;;14.50;3.38;;;29.50;98.10;;;;;;5015673;28;20060;-66
2021/05/23 08:50:50;;;;;;;10.13;2.53;;;29.60;98.20;;;;;;5026146;28;20396;-66
2021/05/23 08:53:55;;;;;;;11.13;3.13;;;30.60;95.90;;;;;;5008990;28;20056;-67
2021/05/23 08:57:02;;;;;;;9.95;3.05;;;30.30;95.60;;;;;;5016142;28;20048;-67
2021/05/23 09:00:10;;;;;;;13.10;2.70;;;31.30;94.20;;;;;;5007987;28;20495;-66
2021/05/23 09:03:16;;;;;;;10.95;3.00;;;31.20;92.70;;;;;;5014446;28;20057;-66
2021/05/23 09:06:26;;;;;;;9.65;2.40;;;31.80;92.50;;;;;;5022991;28;20040;-67
2021/05/23 09:09:45;;;;;;;12.27;2.92;;;32.10;90.90;;;;;;5022937;28;20045;-66
2021/05/23 09:12:50;;;;;;;9.50;2.40;;;30.70;92.30;;;;;;5013516;28;20032;-66
2021/05/23 09:16:10;;;;;;;11.10;2.55;;;28.90;93.50;;;;;;5026738;28;20040;-66
2021/05/23 09:19:15;;;;;;;9.00;2.70;;;30.20;92.50;;;;;;5018673;28;20044;-65
2021/05/23 09:22:25;;;;;;;11.13;2.70;;;28.90;93.50;;;;;;5019196;28;20040;-66
2021/05/23 09:25:36;;;;;;;9.20;2.67;;;28.60;93.50;;;;;;5021473;28;20044;-66
2021/05/23 09:28:40;;;;;;;9.83;2.97;;;27.20;95.50;;;;;;5029384;28;20056;-66
2021/05/23 09:31:55;;;;;;;8.88;3.08;;;28.90;94.70;;;;;;5020707;28;20056;-66
2021/05/23 09:35:07;;;;;;;13.70;3.53;;;30.60;93.70;;;;;;5019383;28;20052;-66
2021/05/23 09:38:15;;;;;;;17.63;3.67;;;31.10;92.40;;;;;;5024093;28;20511;-66
2021/05/23 09:41:25;;;;;;;9.77;2.92;;;31.30;92.30;;;;;;5023247;28;20037;-66
2021/05/23 09:44:29;;;;;;;13.73;4.15;;;31.30;92.30;;;;;;5019733;28;20164;-65
2021/05/23 09:47:33;;;;;;;12.13;2.63;;;28.80;92.50;;;;;;5002992;28;20678;-66
2021/05/23 09:50:41;;;;;;;11.20;3.13;;;29.80;93.50;;;;;;5003764;28;20052;-66
2021/05/23 09:53:58;;;;;;;8.15;2.40;;;29.50;93.60;;;;;;5011241;28;20511;-67
2021/05/23 09:57:12;;;;;;;8.95;2.65;;;31.10;91.70;;;;;;5010223;28;20049;-66
2021/05/23 10:00:17;;;;;;;8.23;2.58;;;32.90;91.00;;;;;;5016489;28;20036;-66
2021/05/23 10:03:34;;;;;;;13.75;3.55;;;32.20;90.70;;;;;;5009887;28;20045;-66
2021/05/23 10:06:41;;;;;;;14.90;3.50;;;28.40;93.20;;;;;;5011853;28;20049;-65
2021/05/23 10:09:45;;;;;;;17.25;3.30;;;26.40;94.00;;;;;;5015269;28;20048;-64
2021/05/23 10:12:49;;;;;;;9.35;2.85;;;27.70;94.20;;;;;;5006647;28;20068;-66
2021/05/23 10:15:55;;;;;;;7.60;2.65;;;29.70;93.30;;;;;;5008293;28;20511;-66
2021/05/23 10:18:59;;;;;;;11.93;3.08;;;31.50;91.20;;;;;;5013975;28;20049;-66
2021/05/23 10:22:06;;;;;;;12.10;3.05;;;33.00;90.30;;;;;;5001059;28;20057;-66
2021/05/23 10:25:14;;;;;;;7.40;2.63;;;33.00;89.70;;;;;;5019413;28;20611;-66
2021/05/23 10:28:20;;;;;;;9.45;3.55;;;32.90;90.40;;;;;;5019543;28;20045;-66
2021/05/23 10:31:34;;;;;;;9.95;3.08;;;29.40;91.70;;;;;;5016276;28;20048;-66
2021/05/23 10:34:46;;;;;;;11.52;3.55;;;26.30;94.50;;;;;;5006525;28;20052;-66
2021/05/23 10:37:53;;;;;;;12.10;2.75;;;25.30;96.40;;;;;;5013244;28;20045;-66
2021/05/23 10:40:59;;;;;;;11.20;3.05;;;26.40;96.30;;;;;;5010756;28;20053;-66
2021/05/23 10:44:07;;;;;;;17.05;3.72;;;27.40;95.20;;;;;;5017173;28;20049;-66
2021/05/23 10:47:13;;;;;;;9.93;3.08;;;27.10;95.00;;;;;;5015894;28;20048;-66
2021/05/23 10:50:17;;;;;;;16.27;4.28;;;25.80;95.60;;;;;;5017113;28;20052;-66
2021/05/23 10:53:33;;;;;;;11.18;3.35;;;25.40;96.50;;;;;;5016418;28;20049;-65
2021/05/23 10:56:37;;;;;;;11.10;2.80;;;25.50;97.40;;;;;;5008479;28;20056;-66
2021/05/23 10:59:41;;;;;;;18.02;3.40;;;25.60;97.50;;;;;;5008286;28;20064;-64
2021/05/23 11:02:46;;;;;;;9.60;3.50;;;26.30;95.60;;;;;;5015786;28;20056;-64
2021/05/23 11:06:05;;;;;;;12.93;3.47;;;24.90;97.70;;;;;;5012835;28;20044;-66
2021/05/23 11:09:15;;;;;;;14.00;3.42;;;24.50;98.20;;;;;;5019067;28;20404;-66
2021/05/23 11:12:19;;;;;;;12.50;3.15;;;25.30;97.70;;;;;;5015911;28;20491;-65
2021/05/23 11:15:26;;;;;;;17.88;3.95;;;25.10;98.30;;;;;;5021077;28;20041;-66
2021/05/23 11:18:30;;;;;;;11.18;3.20;;;24.20;98.00;;;;;;5011413;28;20040;-66
2021/05/23 11:21:41;;;;;;;14.48;3.17;;;24.80;98.70;;;;;;5019697;28;20044;-66
2021/05/23 11:24:51;;;;;;;7.40;2.67;;;26.50;97.00;;;;;;5011127;28;20048;-66
2021/05/23 11:28:11;;;;;;;12.27;2.67;;;28.50;94.00;;;;;;5018867;28;20524;-66
2021/05/23 11:31:29;;;;;;;13.38;3.47;;;28.80;93.80;;;;;;5015226;28;20037;-66
2021/05/23 11:34:37;;;;;;;;;;;27.30;93.90;;;;;;5016554;28;20400;-65
2021/05/23 11:37:41;;;;;;;10.18;3.38;;;27.20;95.20;;;;;;5015907;28;20355;-66
2021/05/23 11:40:46;;;;;;;12.18;2.42;;;28.00;94.00;;;;;;5017690;28;20037;-66
2021/05/23 11:43:57;;;;;;;20.77;2.60;;;29.70;93.20;;;;;;5003097;28;20516;-66
2021/05/23 11:47:04;;;;;;;8.80;2.50;;;29.10;92.30;;;;;;5009237;28;20052;-66
2021/05/23 11:50:21;;;;;;;12.02;2.40;;;30.80;91.10;;;;;;5017155;28;20516;-66
2021/05/23 11:53:58;;;;;;;11.07;2.38;;;30.50;88.60;;;;;;5009991;28;20806;-66
2021/05/23 11:57:04;;;;;;;12.70;2.40;;;28.60;91.60;;;;;;5011524;28;20052;-67
2021/05/23 12:00:22;;;;;;;6.47;2.13;;;27.70;91.60;;;;;;5013351;28;20048;-65
2021/05/23 12:03:27;;;;;;;6.85;1.98;;;29.50;90.80;;;;;;5007668;28;20053;-66
2021/05/23 12:06:33;;;;;;;7.55;2.13;;;28.60;90.10;;;;;;5019448;28;20048;-65
2021/05/23 12:09:39;;;;;;;12.18;2.85;;;27.50;92.10;;;;;;5029502;28;20408;-66
2021/05/23 12:12:49;;;;;;;9.55;2.53;;;26.10;92.30;;;;;;5019006;28;20088;-65
2021/05/23 12:15:57;;;;;;;9.73;2.30;;;25.80;92.00;;;;;;5026074;28;20056;-66
2021/05/23 12:19:02;;;;;;;9.35;2.50;;;27.70;92.10;;;;;;5027656;28;20049;-66
2021/05/23 12:22:06;;;;;;;6.93;2.42;;;26.90;91.90;;;;;;5025665;28;20511;-65
2021/05/23 12:25:14;;;;;;;9.95;2.08;;;26.90;93.20;;;;;;5027819;28;20057;-65
2021/05/23 12:28:18;;;;;;;11.52;2.40;;;26.10;92.30;;;;;;5029952;28;20052;-64
2021/05/23 12:31:24;;;;;;;8.77;2.67;;;25.80;93.00;;;;;;5027013;28;20053;-65
2021/05/23 12:34:30;;;;;;;16.05;2.83;;;26.40;93.70;;;;;;5017812;28;20044;-66
2021/05/23 12:37:35;;;;;;;8.80;2.83;;;26.50;94.30;;;;;;4994793;28;20395;-66
2021/05/23 12:40:51;;;;;;;8.25;2.28;;;27.40;93.10;;;;;;5028536;28;20037;-65
2021/05/23 12:43:55;;;;;;;8.95;2.20;;;26.30;92.90;;;;;;5006547;28;20068;-67
2021/05/23 12:47:10;;;;;;;6.75;1.85;;;25.60;93.10;;;;;;5005792;28;20044;-66
2021/05/23 12:50:32;;;;;;;16.85;3.15;;;25.80;91.60;;;;;;5006270;28;20057;-65
2021/05/23 12:53:52;;;;;;;8.80;2.60;;;26.80;92.70;;;;;;5001696;28;20045;-66
2021/05/23 12:57:03;;;;;;;7.15;2.45;;;26.90;92.30;;;;;;5012820;28;20048;-66
2021/05/23 13:00:07;;;;;;;10.93;2.05;;;25.50;91.90;;;;;;5009644;28;20046;-65
2021/05/23 13:03:13;;;;;;;7.30;2.05;;;25.90;93.00;;;;;;5003157;28;20049;-65
2021/05/23 13:06:18;;;;;;;7.47;2.20;;;26.50;92.30;;;;;;4996731;28;20389;-65
2021/05/23 13:09:34;;;;;;;13.98;2.70;;;25.90;92.70;;;;;;5012569;28;20045;-66
2021/05/23 13:12:39;;;;;;;11.43;2.65;;;27.40;94.90;;;;;;5016674;28;20057;-66
2021/05/23 13:15:44;;;;;;;7.57;2.63;;;28.20;93.90;;;;;;5009024;28;20420;-66
2021/05/23 13:18:48;;;;;;;7.85;2.50;;;28.80;93.60;;;;;;5007381;28;20056;-66
2021/05/23 13:21:57;;;;;;;10.90;2.30;;;29.80;92.10;;;;;;5018063;28;20052;-65
2021/05/23 13:25:04;;;;;;;12.07;2.45;;;30.10;91.80;;;;;;5015214;28;20400;-66
2021/05/23 13:28:09;;;;;;;11.35;3.05;;;30.40;91.00;;;;;;5008913;28;20043;-65
2021/05/23 13:31:15;;;;;;;11.30;2.42;;;27.10;92.90;;;;;;5009763;28;20057;-65
2021/05/23 13:34:20;;;;;;;8.40;2.63;;;26.90;92.30;;;;;;5009473;28;20048;-66
2021/05/23 13:37:24;;;;;;;9.13;2.90;;;26.60;93.40;;;;;;5009431;28;20052;-65
2021/05/23 13:40:28;;;;;;;12.13;3.03;;;27.60;93.10;;;;;;5006994;28;20049;-66
2021/05/23 13:43:34;;;;;;;10.43;2.72;;;28.10;92.40;;;;;;5010024;28;20048;-67
2021/05/23 13:46:38;;;;;;;12.10;2.95;;;28.40;92.30;;;;;;5005967;28;20044;-65
2021/05/23 13:49:43;;;;;;;10.88;2.42;;;28.30;91.40;;;;;;5011060;28;20048;-66
2021/05/23 13:52:49;;;;;;;8.40;2.80;;;28.10;92.20;;;;;;5015545;28;20045;-65
2021/05/23 13:55:55;;;;;;;9.77;2.28;;;27.50;92.30;;;;;;5004749;28;20048;-66
2021/05/23 13:59:01;;;;;;;8.07;2.15;;;27.30;92.80;;;;;;5015241;28;20797;-66
2021/05/23 14:02:05;;;;;;;7.03;2.10;;;27.10;92.10;;;;;;5009664;28;20041;-66
2021/05/23 14:05:11;;;;;;;8.70;2.10;;;27.80;92.30;;;;;;5009604;28;20057;-66
2021/05/23 14:08:17;;;;;;;10.23;2.63;;;28.40;91.40;;;;;;5014681;28;20057;-67
2021/05/23 14:11:22;;;;;;;8.43;2.15;;;28.80;90.70;;;;;;5013519;28;20721;-67
2021/05/23 14:14:27;;;;;;;11.00;2.35;;;28.10;91.70;;;;;;5014646;28;20083;-67
2021/05/23 14:17:32;;;;;;;7.43;2.47;;;28.00;90.80;;;;;;5017897;28;20037;-66
2021/05/23 14:20:37;;;;;;;10.50;2.38;;;28.60;91.10;;;;;;5031113;28;20052;-66
2021/05/23 14:23:41;;;;;;;8.68;2.38;;;28.70;91.10;;;;;;5032664;28;20396;-66
2021/05/23 14:26:48;;;;;;;9.05;2.22;;;28.70;90.90;;;;;;5032405;28;20365;-66
2021/05/23 14:29:55;;;;;;;10.10;1.85;;;28.40;90.30;;;;;;5030503;28;20048;-66
2021/05/23 14:32:59;;;;;;;10.75;2.40;;;27.70;90.20;;;;;;5009379;28;20385;-65
2021/05/23 14:36:04;;;;;;;8.43;2.25;;;28.00;91.50;;;;;;5008317;28;20052;-66
2021/05/23 14:39:09;;;;;;;12.80;2.42;;;28.40;91.00;;;;;;5019596;28;20048;-66
2021/05/23 14:42:13;;;;;;;7.13;1.98;;;28.50;91.70;;;;;;5032385;28;20416;-66
2021/05/23 14:45:20;;;;;;;10.23;2.40;;;28.90;91.30;;;;;;5020305;28;20527;-67
2021/05/23 14:48:25;;;;;;;13.27;2.63;;;29.20;90.70;;;;;;5020427;28;20044;-66
2021/05/23 14:51:29;;;;;;;9.73;2.30;;;28.50;91.20;;;;;;5025020;28;20048;-65
2021/05/23 14:54:33;;;;;;;14.52;2.15;;;28.50;91.00;;;;;;5010807;28;20057;-65
2021/05/23 14:57:40;;;;;;;12.82;2.85;;;28.40;91.00;;;;;;5021252;28;20044;-66
2021/05/23 15:00:43;;;;;;;11.73;2.22;;;28.20;91.20;;;;;;5015560;28;20052;-66
2021/05/23 15:03:48;;;;;;;9.10;2.20;;;28.20;91.70;;;;;;5029139;28;20388;-65
2021/05/23 15:06:52;;;;;;;10.10;2.72;;;28.20;91.80;;;;;;5029032;28;20044;-65
2021/05/23 15:09:57;;;;;;;7.53;2.47;;;28.40;91.50;;;;;;5017448;28;20056;-65
2021/05/23 15:13:01;;;;;;;4.63;1.73;;;28.60;91.10;;;;;;5026019;28;20049;-66
2021/05/23 15:16:07;;;;;;;6.45;1.98;;;28.80;91.10;;;;;;5024273;28;20044;-65
2021/05/23 15:19:12;;;;;;;8.82;2.20;;;28.50;90.60;;;;;;5029844;28;20041;-67
2021/05/23 15:22:17;;;;;;;9.23;1.95;;;28.40;90.10;;;;;;5028653;28;20037;-66
2021/05/23 15:25:22;;;;;;;10.32;2.20;;;28.30;90.80;;;;;;5011249;28;20044;-67
2021/05/23 15:31:49;;;;;;;9.38;2.20;;;27.80;90.90;;;;;;5028886;28;20049;-67
2021/05/23 15:34:54;;;;;;;10.55;2.25;;;27.60;91.80;;;;;;5030421;28;20384;-67
2021/05/23 15:37:59;;;;;;;11.77;2.35;;;27.50;90.60;;;;;;5028990;28;20048;-66
2021/05/23 15:41:04;;;;;;;5.72;1.63;;;27.10;90.60;;;;;;5029516;28;20036;-66
2021/05/23 15:44:09;;;;;;;7.30;2.10;;;27.00;91.00;;;;;;5029346;28;20056;-66
2021/05/23 15:47:14;;;;;;;10.27;2.30;;;26.80;90.40;;;;;;5018871;28;20048;-66
2021/05/23 15:50:18;;;;;;;13.02;2.75;;;26.80;91.00;;;;;;5018416;28;20496;-66
2021/05/23 15:53:24;;;;;;;8.43;2.22;;;26.90;90.60;;;;;;5022187;28;20040;-66
2021/05/23 15:56:29;;;;;;;8.95;2.00;;;26.90;91.00;;;;;;5017571;28;20053;-66
2021/05/23 15:59:33;;;;;;;8.40;1.98;;;26.80;90.90;;;;;;5021077;28;20052;-66
2021/05/23 16:02:38;;;;;;;8.65;2.55;;;27.00;90.50;;;;;;5015598;28;20040;-66